sensor_id;sensor_type;location;lat;lon;timestamp;temperature;humidity
21353;DHT22;10834;52.268;6.770;2023-02-15T00:01:55;2.30;99.90
21353;DHT22;10834;52.268;6.770;2023-02-15T00:04:41;2.30;99.90
21353;DHT22;10834;52.268;6.770;2023-02-15T00:07:33;2.30;99.90
21353;DHT22;10834;52.268;6.770;2023-02-15T00:10:19;2.30;99.90
21353;DHT22;10834;52.268;6.770;2023-02-15T00:13:05;2.20;99.90
21353;DHT22;10834;52.268;6.770;2023-02-15T00:15:51;2.20;99.90
21353;DHT22;10834;52.268;6.770;2023-02-15T00:18:38;2.20;99.90
21353;DHT22;10834;52.268;6.770;2023-02-15T00:21:24;2.20;99.90
21353;DHT22;10834;52.268;6.770;2023-02-15T00:24:12;2.10;99.90
21353;DHT22;10834;52.268;6.770;2023-02-15T00:26:59;2.10;99.90
21353;DHT22;10834;52.268;6.770;2023-02-15T00:29:46;2.10;99.90
21353;DHT22;10834;52.268;6.770;2023-02-15T00:32:32;2.10;99.90
21353;DHT22;10834;52.268;6.770;2023-02-15T00:35:18;2.00;99.90
21353;DHT22;10834;52.268;6.770;2023-02-15T00:38:04;2.00;99.90
21353;DHT22;10834;52.268;6.770;2023-02-15T00:40:54;2.00;99.90
21353;DHT22;10834;52.268;6.770;2023-02-15T00:43:40;2.00;99.90
21353;DHT22;10834;52.268;6.770;2023-02-15T00:46:26;1.90;99.90
21353;DHT22;10834;52.268;6.770;2023-02-15T00:49:12;1.90;99.90
21353;DHT22;10834;52.268;6.770;2023-02-15T00:51:58;1.90;99.90
21353;DHT22;10834;52.268;6.770;2023-02-15T00:54:44;1.90;99.90
21353;DHT22;10834;52.268;6.770;2023-02-15T00:57:30;1.80;99.90
21353;DHT22;10834;52.268;6.770;2023-02-15T01:00:16;1.80;99.90
21353;DHT22;10834;52.268;6.770;2023-02-15T01:03:03;1.80;99.90
21353;DHT22;10834;52.268;6.770;2023-02-15T01:05:49;1.80;99.90
21353;DHT22;10834;52.268;6.770;2023-02-15T01:08:35;1.80;99.90
21353;DHT22;10834;52.268;6.770;2023-02-15T01:11:22;1.70;99.90
21353;DHT22;10834;52.268;6.770;2023-02-15T01:14:08;1.70;99.90
21353;DHT22;10834;52.268;6.770;2023-02-15T01:16:54;1.70;99.90
21353;DHT22;10834;52.268;6.770;2023-02-15T01:19:40;1.60;99.90
21353;DHT22;10834;52.268;6.770;2023-02-15T01:22:26;1.60;99.90
21353;DHT22;10834;52.268;6.770;2023-02-15T01:25:12;1.60;99.90
21353;DHT22;10834;52.268;6.770;2023-02-15T01:27:58;1.60;99.90
21353;DHT22;10834;52.268;6.770;2023-02-15T01:30:44;1.50;99.90
21353;DHT22;10834;52.268;6.770;2023-02-15T01:33:31;1.50;99.90
21353;DHT22;10834;52.268;6.770;2023-02-15T01:36:17;1.50;99.90
21353;DHT22;10834;52.268;6.770;2023-02-15T01:39:03;1.50;99.90
21353;DHT22;10834;52.268;6.770;2023-02-15T01:41:49;1.50;99.90
21353;DHT22;10834;52.268;6.770;2023-02-15T01:47:43;1.40;99.90
21353;DHT22;10834;52.268;6.770;2023-02-15T01:50:44;1.40;99.90
21353;DHT22;10834;52.268;6.770;2023-02-15T01:53:32;1.40;99.90
21353;DHT22;10834;52.268;6.770;2023-02-15T01:56:24;1.40;99.90
21353;DHT22;10834;52.268;6.770;2023-02-15T01:59:17;1.40;99.90
21353;DHT22;10834;52.268;6.770;2023-02-15T02:02:07;1.40;99.90
21353;DHT22;10834;52.268;6.770;2023-02-15T02:05:01;1.40;99.90
21353;DHT22;10834;52.268;6.770;2023-02-15T02:07:58;1.30;99.90
21353;DHT22;10834;52.268;6.770;2023-02-15T02:10:45;1.40;99.90
21353;DHT22;10834;52.268;6.770;2023-02-15T02:13:31;1.30;99.90
21353;DHT22;10834;52.268;6.770;2023-02-15T02:16:25;1.30;99.90
21353;DHT22;10834;52.268;6.770;2023-02-15T02:23:06;1.30;99.90
21353;DHT22;10834;52.268;6.770;2023-02-15T02:35:23;1.20;99.90
21353;DHT22;10834;52.268;6.770;2023-02-15T02:38:52;1.20;99.90
21353;DHT22;10834;52.268;6.770;2023-02-15T02:42:41;1.20;99.90
21353;DHT22;10834;52.268;6.770;2023-02-15T02:45:05;1.10;99.90
21353;DHT22;10834;52.268;6.770;2023-02-15T02:48:00;1.10;99.90
21353;DHT22;10834;52.268;6.770;2023-02-15T02:50:47;1.10;99.90
21353;DHT22;10834;52.268;6.770;2023-02-15T02:53:34;1.10;99.90
21353;DHT22;10834;52.268;6.770;2023-02-15T02:56:43;1.00;99.90
21353;DHT22;10834;52.268;6.770;2023-02-15T02:59:33;1.10;99.90
21353;DHT22;10834;52.268;6.770;2023-02-15T03:02:26;1.10;99.90
21353;DHT22;10834;52.268;6.770;2023-02-15T03:05:21;1.10;99.90
21353;DHT22;10834;52.268;6.770;2023-02-15T03:08:09;1.20;99.90
21353;DHT22;10834;52.268;6.770;2023-02-15T03:10:59;1.20;99.90
21353;DHT22;10834;52.268;6.770;2023-02-15T03:13:48;1.20;99.90
21353;DHT22;10834;52.268;6.770;2023-02-15T03:16:34;1.20;99.90
21353;DHT22;10834;52.268;6.770;2023-02-15T03:19:27;1.20;99.90
21353;DHT22;10834;52.268;6.770;2023-02-15T03:22:20;1.20;99.90
21353;DHT22;10834;52.268;6.770;2023-02-15T03:25:18;1.20;99.90
21353;DHT22;10834;52.268;6.770;2023-02-15T03:28:29;1.20;99.90
21353;DHT22;10834;52.268;6.770;2023-02-15T03:31:15;1.20;99.90
21353;DHT22;10834;52.268;6.770;2023-02-15T03:34:04;1.20;99.90
21353;DHT22;10834;52.268;6.770;2023-02-15T03:36:57;1.20;99.90
21353;DHT22;10834;52.268;6.770;2023-02-15T03:39:51;1.20;99.90
21353;DHT22;10834;52.268;6.770;2023-02-15T03:42:39;1.10;99.90
21353;DHT22;10834;52.268;6.770;2023-02-15T03:45:29;1.10;99.90
21353;DHT22;10834;52.268;6.770;2023-02-15T03:48:17;1.10;99.90
21353;DHT22;10834;52.268;6.770;2023-02-15T03:51:08;1.10;99.90
21353;DHT22;10834;52.268;6.770;2023-02-15T03:54:28;1.10;99.90
21353;DHT22;10834;52.268;6.770;2023-02-15T03:57:35;1.10;99.90
21353;DHT22;10834;52.268;6.770;2023-02-15T04:00:49;1.00;99.90
21353;DHT22;10834;52.268;6.770;2023-02-15T04:04:03;1.00;99.90
21353;DHT22;10834;52.268;6.770;2023-02-15T04:06:51;1.00;99.90
21353;DHT22;10834;52.268;6.770;2023-02-15T04:09:37;1.10;99.90
21353;DHT22;10834;52.268;6.770;2023-02-15T04:12:42;1.00;99.90
21353;DHT22;10834;52.268;6.770;2023-02-15T04:15:28;1.00;99.90
21353;DHT22;10834;52.268;6.770;2023-02-15T04:18:41;1.00;99.90
21353;DHT22;10834;52.268;6.770;2023-02-15T04:21:46;1.00;99.90
21353;DHT22;10834;52.268;6.770;2023-02-15T04:24:51;1.00;99.90
21353;DHT22;10834;52.268;6.770;2023-02-15T04:27:56;1.00;99.90
21353;DHT22;10834;52.268;6.770;2023-02-15T04:30:42;1.00;99.90
21353;DHT22;10834;52.268;6.770;2023-02-15T04:33:28;1.00;99.90
21353;DHT22;10834;52.268;6.770;2023-02-15T04:36:14;1.00;99.90
21353;DHT22;10834;52.268;6.770;2023-02-15T04:39:00;1.00;99.90
21353;DHT22;10834;52.268;6.770;2023-02-15T04:41:46;1.10;99.90
21353;DHT22;10834;52.268;6.770;2023-02-15T04:44:33;1.10;99.90
21353;DHT22;10834;52.268;6.770;2023-02-15T04:47:19;1.10;99.90
21353;DHT22;10834;52.268;6.770;2023-02-15T04:50:06;1.10;99.90
21353;DHT22;10834;52.268;6.770;2023-02-15T04:52:52;1.10;99.90
21353;DHT22;10834;52.268;6.770;2023-02-15T04:55:38;1.10;99.90
21353;DHT22;10834;52.268;6.770;2023-02-15T04:58:24;1.10;99.90
21353;DHT22;10834;52.268;6.770;2023-02-15T05:01:11;1.10;99.90
21353;DHT22;10834;52.268;6.770;2023-02-15T05:03:57;1.10;99.90
21353;DHT22;10834;52.268;6.770;2023-02-15T05:06:43;1.10;99.90
21353;DHT22;10834;52.268;6.770;2023-02-15T05:09:29;1.10;99.90
21353;DHT22;10834;52.268;6.770;2023-02-15T05:12:15;1.10;99.90
21353;DHT22;10834;52.268;6.770;2023-02-15T05:15:01;1.10;99.90
21353;DHT22;10834;52.268;6.770;2023-02-15T05:17:47;1.00;99.90
21353;DHT22;10834;52.268;6.770;2023-02-15T05:20:33;1.00;99.90
21353;DHT22;10834;52.268;6.770;2023-02-15T05:23:19;1.00;99.90
21353;DHT22;10834;52.268;6.770;2023-02-15T05:26:05;1.00;99.90
21353;DHT22;10834;52.268;6.770;2023-02-15T05:29:10;1.00;99.90
21353;DHT22;10834;52.268;6.770;2023-02-15T05:31:56;1.00;99.90
21353;DHT22;10834;52.268;6.770;2023-02-15T05:34:42;1.00;99.90
21353;DHT22;10834;52.268;6.770;2023-02-15T05:37:28;1.00;99.90
21353;DHT22;10834;52.268;6.770;2023-02-15T05:40:14;0.90;99.90
21353;DHT22;10834;52.268;6.770;2023-02-15T05:43:01;0.90;99.90
21353;DHT22;10834;52.268;6.770;2023-02-15T05:45:52;0.90;99.90
21353;DHT22;10834;52.268;6.770;2023-02-15T05:48:38;0.90;99.90
21353;DHT22;10834;52.268;6.770;2023-02-15T05:51:25;0.90;99.90
21353;DHT22;10834;52.268;6.770;2023-02-15T05:54:10;0.90;99.90
21353;DHT22;10834;52.268;6.770;2023-02-15T05:56:57;0.90;99.90
21353;DHT22;10834;52.268;6.770;2023-02-15T05:59:43;0.80;99.90
21353;DHT22;10834;52.268;6.770;2023-02-15T06:02:29;0.90;99.90
21353;DHT22;10834;52.268;6.770;2023-02-15T06:05:15;0.80;99.90
21353;DHT22;10834;52.268;6.770;2023-02-15T06:08:02;0.80;99.90
21353;DHT22;10834;52.268;6.770;2023-02-15T06:10:48;0.80;99.90
21353;DHT22;10834;52.268;6.770;2023-02-15T06:13:35;0.80;99.90
21353;DHT22;10834;52.268;6.770;2023-02-15T06:16:21;0.80;99.90
21353;DHT22;10834;52.268;6.770;2023-02-15T06:19:07;0.80;99.90
21353;DHT22;10834;52.268;6.770;2023-02-15T06:21:53;0.90;99.90
21353;DHT22;10834;52.268;6.770;2023-02-15T06:24:39;0.90;99.90
21353;DHT22;10834;52.268;6.770;2023-02-15T06:27:28;1.00;99.90
21353;DHT22;10834;52.268;6.770;2023-02-15T06:30:14;1.00;99.90
21353;DHT22;10834;52.268;6.770;2023-02-15T06:33:00;1.00;99.90
21353;DHT22;10834;52.268;6.770;2023-02-15T06:35:46;1.10;99.90
21353;DHT22;10834;52.268;6.770;2023-02-15T06:38:32;1.20;99.90
21353;DHT22;10834;52.268;6.770;2023-02-15T06:41:18;1.30;99.90
21353;DHT22;10834;52.268;6.770;2023-02-15T06:44:04;1.30;99.90
21353;DHT22;10834;52.268;6.770;2023-02-15T06:46:51;1.30;99.90
21353;DHT22;10834;52.268;6.770;2023-02-15T06:49:37;1.40;99.90
21353;DHT22;10834;52.268;6.770;2023-02-15T06:52:24;1.30;99.90
21353;DHT22;10834;52.268;6.770;2023-02-15T06:55:10;1.40;99.90
21353;DHT22;10834;52.268;6.770;2023-02-15T06:57:56;1.40;99.90
21353;DHT22;10834;52.268;6.770;2023-02-15T07:00:42;1.40;99.90
21353;DHT22;10834;52.268;6.770;2023-02-15T07:03:28;1.40;99.90
21353;DHT22;10834;52.268;6.770;2023-02-15T07:06:15;1.50;99.90
21353;DHT22;10834;52.268;6.770;2023-02-15T07:09:01;1.50;99.90
21353;DHT22;10834;52.268;6.770;2023-02-15T07:11:47;1.60;99.90
21353;DHT22;10834;52.268;6.770;2023-02-15T07:14:52;1.60;99.90
21353;DHT22;10834;52.268;6.770;2023-02-15T07:17:38;1.70;99.90
21353;DHT22;10834;52.268;6.770;2023-02-15T07:20:24;1.70;99.90
21353;DHT22;10834;52.268;6.770;2023-02-15T07:23:10;1.80;99.90
21353;DHT22;10834;52.268;6.770;2023-02-15T07:26:00;1.80;99.90
21353;DHT22;10834;52.268;6.770;2023-02-15T07:28:47;1.90;99.90
21353;DHT22;10834;52.268;6.770;2023-02-15T07:31:33;2.00;99.90
21353;DHT22;10834;52.268;6.770;2023-02-15T07:34:19;2.10;99.90
21353;DHT22;10834;52.268;6.770;2023-02-15T07:37:05;2.20;99.90
21353;DHT22;10834;52.268;6.770;2023-02-15T07:39:51;2.30;99.90
21353;DHT22;10834;52.268;6.770;2023-02-15T07:42:38;2.40;99.90
21353;DHT22;10834;52.268;6.770;2023-02-15T07:45:24;2.50;99.90
21353;DHT22;10834;52.268;6.770;2023-02-15T07:48:10;2.60;99.90
21353;DHT22;10834;52.268;6.770;2023-02-15T07:51:03;2.70;99.90
21353;DHT22;10834;52.268;6.770;2023-02-15T07:53:49;2.80;99.90
21353;DHT22;10834;52.268;6.770;2023-02-15T07:56:37;2.90;99.90
21353;DHT22;10834;52.268;6.770;2023-02-15T07:59:23;3.00;99.90
21353;DHT22;10834;52.268;6.770;2023-02-15T08:02:10;3.10;99.90
21353;DHT22;10834;52.268;6.770;2023-02-15T08:04:56;3.20;99.90
21353;DHT22;10834;52.268;6.770;2023-02-15T08:07:42;3.20;99.90
21353;DHT22;10834;52.268;6.770;2023-02-15T08:10:28;3.30;99.90
21353;DHT22;10834;52.268;6.770;2023-02-15T08:13:33;3.40;99.90
21353;DHT22;10834;52.268;6.770;2023-02-15T08:16:54;3.50;99.90
21353;DHT22;10834;52.268;6.770;2023-02-15T08:19:41;3.70;99.90
21353;DHT22;10834;52.268;6.770;2023-02-15T08:22:27;3.80;99.90
21353;DHT22;10834;52.268;6.770;2023-02-15T08:25:15;3.90;99.90
21353;DHT22;10834;52.268;6.770;2023-02-15T08:28:01;4.10;99.90
21353;DHT22;10834;52.268;6.770;2023-02-15T08:30:47;4.20;99.90
21353;DHT22;10834;52.268;6.770;2023-02-15T08:33:34;4.40;99.90
21353;DHT22;10834;52.268;6.770;2023-02-15T08:36:23;4.50;99.90
21353;DHT22;10834;52.268;6.770;2023-02-15T08:39:09;4.60;99.90
21353;DHT22;10834;52.268;6.770;2023-02-15T08:41:55;4.80;99.90
21353;DHT22;10834;52.268;6.770;2023-02-15T08:44:41;4.90;99.90
21353;DHT22;10834;52.268;6.770;2023-02-15T08:47:27;5.10;99.90
21353;DHT22;10834;52.268;6.770;2023-02-15T08:50:13;5.30;99.90
21353;DHT22;10834;52.268;6.770;2023-02-15T08:52:59;5.50;99.90
21353;DHT22;10834;52.268;6.770;2023-02-15T08:55:45;5.70;99.90
21353;DHT22;10834;52.268;6.770;2023-02-15T08:58:32;5.80;99.90
21353;DHT22;10834;52.268;6.770;2023-02-15T09:01:21;6.00;99.90
21353;DHT22;10834;52.268;6.770;2023-02-15T09:04:09;6.10;99.90
21353;DHT22;10834;52.268;6.770;2023-02-15T09:06:55;6.20;99.90
21353;DHT22;10834;52.268;6.770;2023-02-15T09:09:41;6.40;99.90
21353;DHT22;10834;52.268;6.770;2023-02-15T09:12:27;6.60;99.90
21353;DHT22;10834;52.268;6.770;2023-02-15T09:15:13;6.90;99.90
21353;DHT22;10834;52.268;6.770;2023-02-15T09:17:59;7.20;99.90
21353;DHT22;10834;52.268;6.770;2023-02-15T09:20:48;7.50;99.90
21353;DHT22;10834;52.268;6.770;2023-02-15T09:23:35;7.90;99.90
21353;DHT22;10834;52.268;6.770;2023-02-15T09:26:23;8.00;99.90
21353;DHT22;10834;52.268;6.770;2023-02-15T09:29:10;8.10;99.90
21353;DHT22;10834;52.268;6.770;2023-02-15T09:31:57;8.30;99.90
21353;DHT22;10834;52.268;6.770;2023-02-15T09:34:43;9.10;99.90
21353;DHT22;10834;52.268;6.770;2023-02-15T09:37:30;10.00;99.90
21353;DHT22;10834;52.268;6.770;2023-02-15T09:40:18;10.40;99.90
21353;DHT22;10834;52.268;6.770;2023-02-15T09:43:13;10.70;99.90
21353;DHT22;10834;52.268;6.770;2023-02-15T09:52:44;12.40;97.70
21353;DHT22;10834;52.268;6.770;2023-02-15T10:26:47;11.80;96.80
21353;DHT22;10834;52.268;6.770;2023-02-15T10:29:38;11.90;97.60
21353;DHT22;10834;52.268;6.770;2023-02-15T10:32:26;12.20;98.20
21353;DHT22;10834;52.268;6.770;2023-02-15T10:35:24;12.70;95.30
21353;DHT22;10834;52.268;6.770;2023-02-15T10:38:42;13.30;93.20
21353;DHT22;10834;52.268;6.770;2023-02-15T10:50:55;13.40;88.70
21353;DHT22;10834;52.268;6.770;2023-02-15T10:54:09;13.30;88.90
21353;DHT22;10834;52.268;6.770;2023-02-15T10:57:15;13.40;89.60
21353;DHT22;10834;52.268;6.770;2023-02-15T11:03:30;13.50;89.60
21353;DHT22;10834;52.268;6.770;2023-02-15T11:06:20;13.70;83.60
21353;DHT22;10834;52.268;6.770;2023-02-15T11:09:11;14.20;81.90
21353;DHT22;10834;52.268;6.770;2023-02-15T11:11:59;14.90;79.70
21353;DHT22;10834;52.268;6.770;2023-02-15T11:14:50;15.20;75.40
21353;DHT22;10834;52.268;6.770;2023-02-15T11:17:46;15.10;74.10
21353;DHT22;10834;52.268;6.770;2023-02-15T11:20:42;14.90;75.30
21353;DHT22;10834;52.268;6.770;2023-02-15T11:23:30;14.40;72.10
21353;DHT22;10834;52.268;6.770;2023-02-15T11:29:51;13.60;77.10
21353;DHT22;10834;52.268;6.770;2023-02-15T11:32:40;14.00;79.30
21353;DHT22;10834;52.268;6.770;2023-02-15T11:35:49;14.40;77.80
21353;DHT22;10834;52.268;6.770;2023-02-15T11:38:36;14.70;77.50
21353;DHT22;10834;52.268;6.770;2023-02-15T11:41:29;14.50;73.60
21353;DHT22;10834;52.268;6.770;2023-02-15T11:44:46;14.30;74.80
21353;DHT22;10834;52.268;6.770;2023-02-15T11:47:34;14.30;75.90
21353;DHT22;10834;52.268;6.770;2023-02-15T11:50:23;14.60;77.90
21353;DHT22;10834;52.268;6.770;2023-02-15T11:53:21;14.70;76.40
21353;DHT22;10834;52.268;6.770;2023-02-15T11:56:20;14.50;76.60
21353;DHT22;10834;52.268;6.770;2023-02-15T11:59:11;14.20;78.80
21353;DHT22;10834;52.268;6.770;2023-02-15T12:01:58;14.10;78.50
21353;DHT22;10834;52.268;6.770;2023-02-15T12:04:50;13.90;80.00
21353;DHT22;10834;52.268;6.770;2023-02-15T12:07:46;13.80;80.00
21353;DHT22;10834;52.268;6.770;2023-02-15T12:10:40;13.80;79.90
21353;DHT22;10834;52.268;6.770;2023-02-15T12:13:28;13.80;80.30
21353;DHT22;10834;52.268;6.770;2023-02-15T12:16:15;13.70;78.40
21353;DHT22;10834;52.268;6.770;2023-02-15T12:19:02;13.60;81.60
21353;DHT22;10834;52.268;6.770;2023-02-15T12:21:50;13.60;81.00
21353;DHT22;10834;52.268;6.770;2023-02-15T12:24:44;13.50;81.40
21353;DHT22;10834;52.268;6.770;2023-02-15T12:27:33;13.40;82.00
21353;DHT22;10834;52.268;6.770;2023-02-15T12:30:31;13.60;85.70
21353;DHT22;10834;52.268;6.770;2023-02-15T12:33:56;13.60;81.90
21353;DHT22;10834;52.268;6.770;2023-02-15T12:36:46;13.60;80.90
21353;DHT22;10834;52.268;6.770;2023-02-15T12:39:36;13.60;81.60
21353;DHT22;10834;52.268;6.770;2023-02-15T12:42:23;13.80;81.50
21353;DHT22;10834;52.268;6.770;2023-02-15T12:45:31;13.80;77.20
21353;DHT22;10834;52.268;6.770;2023-02-15T12:48:19;13.70;78.30
21353;DHT22;10834;52.268;6.770;2023-02-15T12:51:08;13.70;79.90
21353;DHT22;10834;52.268;6.770;2023-02-15T12:53:54;13.70;78.70
21353;DHT22;10834;52.268;6.770;2023-02-15T12:56:40;13.70;79.60
21353;DHT22;10834;52.268;6.770;2023-02-15T12:59:26;13.50;82.00
21353;DHT22;10834;52.268;6.770;2023-02-15T13:02:23;13.30;80.80
21353;DHT22;10834;52.268;6.770;2023-02-15T13:05:21;13.10;81.80
21353;DHT22;10834;52.268;6.770;2023-02-15T13:08:10;13.00;82.70
21353;DHT22;10834;52.268;6.770;2023-02-15T13:10:59;12.90;84.40
21353;DHT22;10834;52.268;6.770;2023-02-15T13:14:18;13.00;84.30
21353;DHT22;10834;52.268;6.770;2023-02-15T13:17:05;13.10;86.50
21353;DHT22;10834;52.268;6.770;2023-02-15T13:19:52;13.30;86.40
21353;DHT22;10834;52.268;6.770;2023-02-15T13:22:43;13.40;85.70
21353;DHT22;10834;52.268;6.770;2023-02-15T13:25:40;13.60;85.00
21353;DHT22;10834;52.268;6.770;2023-02-15T13:28:39;13.60;83.50
21353;DHT22;10834;52.268;6.770;2023-02-15T13:31:29;13.60;82.20
21353;DHT22;10834;52.268;6.770;2023-02-15T13:34:44;13.70;82.20
21353;DHT22;10834;52.268;6.770;2023-02-15T13:37:54;13.70;81.40
21353;DHT22;10834;52.268;6.770;2023-02-15T13:40:44;13.60;81.10
21353;DHT22;10834;52.268;6.770;2023-02-15T13:43:52;13.50;81.90
21353;DHT22;10834;52.268;6.770;2023-02-15T13:49:51;13.40;83.50
21353;DHT22;10834;52.268;6.770;2023-02-15T13:52:51;13.40;85.10
21353;DHT22;10834;52.268;6.770;2023-02-15T14:11:23;12.80;88.40
21353;DHT22;10834;52.268;6.770;2023-02-15T14:14:27;12.70;89.60
21353;DHT22;10834;52.268;6.770;2023-02-15T14:17:28;12.60;89.60
21353;DHT22;10834;52.268;6.770;2023-02-15T14:26:45;12.40;91.40
21353;DHT22;10834;52.268;6.770;2023-02-15T14:32:45;12.40;92.50
21353;DHT22;10834;52.268;6.770;2023-02-15T14:35:33;12.30;91.90
21353;DHT22;10834;52.268;6.770;2023-02-15T14:41:35;12.40;92.50
21353;DHT22;10834;52.268;6.770;2023-02-15T14:44:30;12.40;92.00
21353;DHT22;10834;52.268;6.770;2023-02-15T14:47:31;12.40;91.90
21353;DHT22;10834;52.268;6.770;2023-02-15T14:56:20;12.40;90.70
21353;DHT22;10834;52.268;6.770;2023-02-15T14:59:18;12.40;90.80
21353;DHT22;10834;52.268;6.770;2023-02-15T15:05:33;12.30;91.50
21353;DHT22;10834;52.268;6.770;2023-02-15T15:08:34;12.30;91.00
21353;DHT22;10834;52.268;6.770;2023-02-15T15:29:07;11.90;96.30
21353;DHT22;10834;52.268;6.770;2023-02-15T15:31:55;11.80;97.80
21353;DHT22;10834;52.268;6.770;2023-02-15T15:35:05;11.70;97.70
21353;DHT22;10834;52.268;6.770;2023-02-15T15:50:22;11.30;99.90
21353;DHT22;10834;52.268;6.770;2023-02-15T15:53:20;11.20;99.90
21353;DHT22;10834;52.268;6.770;2023-02-15T15:56:13;11.10;99.90
21353;DHT22;10834;52.268;6.770;2023-02-15T15:59:06;11.00;99.90
21353;DHT22;10834;52.268;6.770;2023-02-15T16:01:53;10.90;99.90
21353;DHT22;10834;52.268;6.770;2023-02-15T16:04:39;10.80;99.90
21353;DHT22;10834;52.268;6.770;2023-02-15T16:07:26;10.70;99.90
21353;DHT22;10834;52.268;6.770;2023-02-15T16:10:27;10.60;99.90
21353;DHT22;10834;52.268;6.770;2023-02-15T16:13:13;10.60;99.90
21353;DHT22;10834;52.268;6.770;2023-02-15T16:16:00;10.50;99.90
21353;DHT22;10834;52.268;6.770;2023-02-15T16:18:46;10.40;99.90
21353;DHT22;10834;52.268;6.770;2023-02-15T16:21:34;10.30;99.90
21353;DHT22;10834;52.268;6.770;2023-02-15T16:27:37;10.10;99.90
21353;DHT22;10834;52.268;6.770;2023-02-15T16:30:31;10.10;99.90
21353;DHT22;10834;52.268;6.770;2023-02-15T16:33:18;10.00;99.90
21353;DHT22;10834;52.268;6.770;2023-02-15T16:36:10;9.90;99.90
21353;DHT22;10834;52.268;6.770;2023-02-15T16:41:43;9.60;99.90
21353;DHT22;10834;52.268;6.770;2023-02-15T16:44:31;9.50;99.90
21353;DHT22;10834;52.268;6.770;2023-02-15T16:47:26;9.50;99.90
21353;DHT22;10834;52.268;6.770;2023-02-15T16:50:34;9.40;99.90
21353;DHT22;10834;52.268;6.770;2023-02-15T16:53:24;9.40;99.90
21353;DHT22;10834;52.268;6.770;2023-02-15T16:56:10;9.40;99.90
21353;DHT22;10834;52.268;6.770;2023-02-15T16:58:57;9.30;99.90
21353;DHT22;10834;52.268;6.770;2023-02-15T17:01:44;9.20;99.90
21353;DHT22;10834;52.268;6.770;2023-02-15T17:04:31;9.20;99.90
21353;DHT22;10834;52.268;6.770;2023-02-15T17:07:20;9.10;99.90
21353;DHT22;10834;52.268;6.770;2023-02-15T17:10:30;9.10;99.90
21353;DHT22;10834;52.268;6.770;2023-02-15T17:13:17;9.00;99.90
21353;DHT22;10834;52.268;6.770;2023-02-15T17:18:49;8.80;99.90
21353;DHT22;10834;52.268;6.770;2023-02-15T17:21:40;8.80;99.90
21353;DHT22;10834;52.268;6.770;2023-02-15T17:24:37;8.70;99.90
21353;DHT22;10834;52.268;6.770;2023-02-15T17:27:26;8.60;99.90
21353;DHT22;10834;52.268;6.770;2023-02-15T17:30:17;8.50;99.90
21353;DHT22;10834;52.268;6.770;2023-02-15T17:33:20;8.40;99.90
21353;DHT22;10834;52.268;6.770;2023-02-15T17:36:23;8.30;99.90
21353;DHT22;10834;52.268;6.770;2023-02-15T17:39:21;8.30;99.90
21353;DHT22;10834;52.268;6.770;2023-02-15T17:42:08;8.30;99.90
21353;DHT22;10834;52.268;6.770;2023-02-15T17:44:54;8.30;99.90
21353;DHT22;10834;52.268;6.770;2023-02-15T17:47:40;8.30;99.90
21353;DHT22;10834;52.268;6.770;2023-02-15T17:50:27;8.30;99.90
21353;DHT22;10834;52.268;6.770;2023-02-15T17:53:16;8.40;99.90
21353;DHT22;10834;52.268;6.770;2023-02-15T17:56:03;8.30;99.90
21353;DHT22;10834;52.268;6.770;2023-02-15T17:58:55;8.30;99.90
21353;DHT22;10834;52.268;6.770;2023-02-15T18:01:47;8.30;99.90
21353;DHT22;10834;52.268;6.770;2023-02-15T18:04:52;8.20;99.90
21353;DHT22;10834;52.268;6.770;2023-02-15T18:07:57;8.10;99.90
21353;DHT22;10834;52.268;6.770;2023-02-15T18:11:02;8.10;99.90
21353;DHT22;10834;52.268;6.770;2023-02-15T18:14:08;8.00;99.90
21353;DHT22;10834;52.268;6.770;2023-02-15T18:16:54;8.00;99.90
21353;DHT22;10834;52.268;6.770;2023-02-15T18:19:42;8.00;99.90
21353;DHT22;10834;52.268;6.770;2023-02-15T18:22:29;8.00;99.90
21353;DHT22;10834;52.268;6.770;2023-02-15T18:25:17;7.90;99.90
21353;DHT22;10834;52.268;6.770;2023-02-15T18:28:04;7.90;99.90
21353;DHT22;10834;52.268;6.770;2023-02-15T18:30:51;7.90;99.90
21353;DHT22;10834;52.268;6.770;2023-02-15T18:33:58;7.90;99.90
21353;DHT22;10834;52.268;6.770;2023-02-15T18:36:45;7.80;99.90
21353;DHT22;10834;52.268;6.770;2023-02-15T18:39:36;7.90;99.90
21353;DHT22;10834;52.268;6.770;2023-02-15T18:42:25;7.90;99.90
21353;DHT22;10834;52.268;6.770;2023-02-15T18:48:06;7.80;99.90
21353;DHT22;10834;52.268;6.770;2023-02-15T18:50:55;7.70;99.90
21353;DHT22;10834;52.268;6.770;2023-02-15T18:53:41;7.60;99.90
21353;DHT22;10834;52.268;6.770;2023-02-15T18:56:28;7.60;99.90
21353;DHT22;10834;52.268;6.770;2023-02-15T18:59:18;7.40;99.90
21353;DHT22;10834;52.268;6.770;2023-02-15T19:02:14;7.30;99.90
21353;DHT22;10834;52.268;6.770;2023-02-15T19:05:00;7.20;99.90
21353;DHT22;10834;52.268;6.770;2023-02-15T19:07:46;7.10;99.90
21353;DHT22;10834;52.268;6.770;2023-02-15T19:10:35;7.00;99.90
21353;DHT22;10834;52.268;6.770;2023-02-15T19:13:21;7.00;99.90
21353;DHT22;10834;52.268;6.770;2023-02-15T19:16:30;7.00;99.90
21353;DHT22;10834;52.268;6.770;2023-02-15T19:19:16;7.10;99.90
21353;DHT22;10834;52.268;6.770;2023-02-15T19:22:02;7.00;99.90
21353;DHT22;10834;52.268;6.770;2023-02-15T19:24:50;7.00;99.90
21353;DHT22;10834;52.268;6.770;2023-02-15T19:27:37;7.00;99.90
21353;DHT22;10834;52.268;6.770;2023-02-15T19:33:17;6.90;99.90
21353;DHT22;10834;52.268;6.770;2023-02-15T19:36:05;6.90;99.90
21353;DHT22;10834;52.268;6.770;2023-02-15T19:38:54;6.90;99.90
21353;DHT22;10834;52.268;6.770;2023-02-15T19:41:40;6.80;99.90
21353;DHT22;10834;52.268;6.770;2023-02-15T19:44:27;6.80;99.90
21353;DHT22;10834;52.268;6.770;2023-02-15T19:47:13;6.80;99.90
21353;DHT22;10834;52.268;6.770;2023-02-15T19:49:59;6.80;99.90
21353;DHT22;10834;52.268;6.770;2023-02-15T19:52:48;6.90;99.90
21353;DHT22;10834;52.268;6.770;2023-02-15T19:55:34;6.80;99.90
21353;DHT22;10834;52.268;6.770;2023-02-15T19:58:22;6.80;99.90
21353;DHT22;10834;52.268;6.770;2023-02-15T20:01:08;6.70;99.90
21353;DHT22;10834;52.268;6.770;2023-02-15T20:03:55;6.70;99.90
21353;DHT22;10834;52.268;6.770;2023-02-15T20:06:41;6.70;99.90
21353;DHT22;10834;52.268;6.770;2023-02-15T20:09:34;6.60;99.90
21353;DHT22;10834;52.268;6.770;2023-02-15T20:12:24;6.60;99.90
21353;DHT22;10834;52.268;6.770;2023-02-15T20:15:20;6.60;99.90
21353;DHT22;10834;52.268;6.770;2023-02-15T20:18:06;6.60;99.90
21353;DHT22;10834;52.268;6.770;2023-02-15T20:20:53;6.60;99.90
21353;DHT22;10834;52.268;6.770;2023-02-15T20:23:40;6.60;99.90
21353;DHT22;10834;52.268;6.770;2023-02-15T20:26:26;6.70;99.90
21353;DHT22;10834;52.268;6.770;2023-02-15T20:29:17;6.80;99.90
21353;DHT22;10834;52.268;6.770;2023-02-15T20:32:03;6.70;99.90
21353;DHT22;10834;52.268;6.770;2023-02-15T20:34:49;6.70;99.90
21353;DHT22;10834;52.268;6.770;2023-02-15T20:37:35;6.70;99.90
21353;DHT22;10834;52.268;6.770;2023-02-15T20:40:24;6.70;99.90
21353;DHT22;10834;52.268;6.770;2023-02-15T20:43:13;6.70;99.90
21353;DHT22;10834;52.268;6.770;2023-02-15T20:46:00;6.60;99.90
21353;DHT22;10834;52.268;6.770;2023-02-15T20:48:46;6.60;99.90